createdAt,value
2022-12-15T00:00:14.861Z,99254.70
2022-12-15T00:03:26.276Z,99256.00
2022-12-15T00:06:13.548Z,99255.45
2022-12-15T00:09:00.447Z,99258.41
2022-12-15T00:11:47.607Z,99260.89
2022-12-15T00:14:35.042Z,99265.23
2022-12-15T00:17:22.108Z,99266.10
2022-12-15T00:20:09.173Z,99267.57
2022-12-15T00:22:56.335Z,99260.64
2022-12-15T00:25:43.089Z,99259.95
2022-12-15T00:28:30.100Z,99253.70
2022-12-15T00:31:18.450Z,99254.52
2022-12-15T00:34:05.667Z,99260.73
2022-12-15T00:36:52.473Z,99260.81
2022-12-15T00:39:21.198Z,99257.11
2022-12-15T00:41:49.539Z,99250.46
2022-12-15T00:44:20.740Z,99247.09
2022-12-15T00:46:55.449Z,99248.50
2022-12-15T00:49:45.528Z,99250.77
2022-12-15T00:52:34.487Z,99247.44
2022-12-15T00:55:23.419Z,99247.36
2022-12-15T00:58:12.309Z,99250.14
2022-12-15T01:00:59.733Z,99254.00
2022-12-15T01:03:47.244Z,99254.19
2022-12-15T01:06:38.123Z,99248.64
2022-12-15T01:09:33.299Z,99252.73
2022-12-15T01:12:20.134Z,99247.23
2022-12-15T01:15:07.425Z,99245.29
2022-12-15T01:17:54.428Z,99241.42
2022-12-15T01:20:23.007Z,99239.61
2022-12-15T01:22:55.999Z,99235.44
2022-12-15T01:25:25.727Z,99232.48
2022-12-15T01:27:54.001Z,99228.38
2022-12-15T01:30:25.670Z,99230.45
2022-12-15T01:32:54.358Z,99231.67
2022-12-15T01:35:22.975Z,99232.22
2022-12-15T01:37:51.528Z,99237.50
2022-12-15T01:40:40.274Z,99240.73
2022-12-15T01:43:24.725Z,99235.90
2022-12-15T01:46:06.274Z,99236.63
2022-12-15T01:48:38.307Z,99236.03
2022-12-15T01:51:16.185Z,99236.71
2022-12-15T01:53:53.997Z,99234.73
2022-12-15T01:56:24.021Z,99231.54
2022-12-15T01:58:55.404Z,99230.39
2022-12-15T02:01:24.019Z,99232.27
2022-12-15T02:03:52.467Z,99231.77
2022-12-15T02:06:22.476Z,99233.13
2022-12-15T02:08:54.880Z,99236.85
2022-12-15T02:11:33.223Z,99236.02
2022-12-15T02:14:05.787Z,99238.40
2022-12-15T02:17:02.153Z,99240.41
2022-12-15T02:19:36.672Z,99243.61
2022-12-15T02:22:22.336Z,99242.59
2022-12-15T02:25:12.449Z,99242.20
2022-12-15T02:28:04.170Z,99249.71
2022-12-15T02:30:38.568Z,99247.16
2022-12-15T02:33:08.923Z,99247.64
2022-12-15T02:36:08.818Z,99247.45
2022-12-15T02:38:39.372Z,99248.22
2022-12-15T02:41:35.872Z,99245.09
2022-12-15T02:44:20.851Z,99244.18
2022-12-15T02:46:55.987Z,99243.05
2022-12-15T02:50:01.353Z,99241.32
2022-12-15T02:52:55.635Z,99240.38
2022-12-15T02:56:00.799Z,99239.75
2022-12-15T02:58:45.124Z,99239.39
2022-12-15T03:01:33.676Z,99243.27
2022-12-15T03:04:04.636Z,99245.80
2022-12-15T03:06:32.962Z,99249.73
2022-12-15T03:09:01.404Z,99249.73
2022-12-15T03:11:30.699Z,99248.58
2022-12-15T03:13:59.162Z,99246.40
2022-12-15T03:16:27.561Z,99248.62
2022-12-15T03:18:56.014Z,99244.12
2022-12-15T03:21:24.199Z,99243.35
2022-12-15T03:23:52.581Z,99243.30
2022-12-15T03:26:21.222Z,99240.23
2022-12-15T03:28:49.472Z,99244.16
2022-12-15T03:31:17.917Z,99244.02
2022-12-15T03:33:46.866Z,99246.27
2022-12-15T03:36:15.117Z,99244.95
2022-12-15T03:38:43.414Z,99246.83
2022-12-15T03:41:12.194Z,99244.52
2022-12-15T03:43:40.423Z,99246.41
2022-12-15T03:46:08.786Z,99248.10
2022-12-15T03:48:37.957Z,99246.92
2022-12-15T03:51:06.564Z,99249.86
2022-12-15T03:53:34.911Z,99244.64
2022-12-15T03:56:03.413Z,99246.23
2022-12-15T03:58:31.692Z,99246.77
2022-12-15T04:01:09.278Z,99250.82
2022-12-15T04:03:38.069Z,99249.39
2022-12-15T04:06:06.581Z,99252.05
2022-12-15T04:08:34.872Z,99250.25
2022-12-15T04:11:03.184Z,99250.52
2022-12-15T04:13:31.733Z,99250.17
2022-12-15T04:16:02.928Z,99250.69
2022-12-15T04:18:31.343Z,99247.48
2022-12-15T04:20:59.563Z,99249.20
2022-12-15T04:23:28.384Z,99251.95
2022-12-15T04:26:15.507Z,99250.12
2022-12-15T04:29:02.464Z,99250.83
2022-12-15T04:31:52.319Z,99246.26
2022-12-15T04:34:42.284Z,99248.50
2022-12-15T04:37:32.641Z,99246.48
2022-12-15T04:40:19.678Z,99245.30
2022-12-15T04:43:07.295Z,99243.46
2022-12-15T04:45:54.319Z,99244.46
2022-12-15T04:48:41.347Z,99246.54
2022-12-15T04:51:28.069Z,99248.29
2022-12-15T04:54:15.168Z,99252.88
2022-12-15T04:57:02.081Z,99256.10
2022-12-15T04:59:49.159Z,99256.94
2022-12-15T05:02:36.404Z,99259.48
2022-12-15T05:05:23.887Z,99260.20
2022-12-15T05:08:10.844Z,99257.02
2022-12-15T05:10:57.918Z,99269.23
2022-12-15T05:13:44.748Z,99273.79
2022-12-15T05:16:31.708Z,99277.55
2022-12-15T05:19:18.526Z,99275.55
2022-12-15T05:22:05.549Z,99273.13
2022-12-15T05:24:52.739Z,99278.38
2022-12-15T05:27:39.924Z,99279.09
2022-12-15T05:30:27.916Z,99283.65
2022-12-15T05:32:56.240Z,99285.31
2022-12-15T05:35:24.870Z,99287.09
2022-12-15T05:37:53.727Z,99282.34
2022-12-15T05:40:22.021Z,99279.10
2022-12-15T05:42:50.495Z,99286.20
2022-12-15T05:45:18.696Z,99285.52
2022-12-15T05:47:51.631Z,99289.09
2022-12-15T05:50:21.097Z,99292.42
2022-12-15T05:52:49.939Z,99295.79
2022-12-15T05:55:19.043Z,99299.33
2022-12-15T05:57:54.417Z,99304.86
2022-12-15T06:00:23.133Z,99305.80
2022-12-15T06:02:51.414Z,99306.80
2022-12-15T06:05:19.677Z,99310.12
2022-12-15T06:07:47.929Z,99314.50
2022-12-15T06:10:16.235Z,99320.69
2022-12-15T06:12:44.455Z,99328.78
2022-12-15T06:15:13.022Z,99332.30
2022-12-15T06:17:41.253Z,99332.62
2022-12-15T06:20:09.976Z,99333.63
2022-12-15T06:22:38.976Z,99339.18
2022-12-15T06:25:07.655Z,99339.16
2022-12-15T06:27:37.850Z,99347.23
2022-12-15T06:30:06.529Z,99346.05
2022-12-15T06:32:36.389Z,99347.89
2022-12-15T06:35:05.044Z,99347.36
2022-12-15T06:37:33.308Z,99352.79
2022-12-15T06:40:02.242Z,99357.02
2022-12-15T06:42:30.595Z,99356.16
2022-12-15T06:44:58.944Z,99359.39
2022-12-15T06:47:27.203Z,99362.30
2022-12-15T06:49:56.056Z,99359.81
2022-12-15T06:52:24.243Z,99364.36
2022-12-15T06:54:52.537Z,99364.20
2022-12-15T06:57:20.997Z,99368.27
2022-12-15T06:59:49.221Z,99370.15
2022-12-15T07:02:22.341Z,99376.98
2022-12-15T07:04:53.647Z,99379.03
2022-12-15T07:07:21.979Z,99385.15
2022-12-15T07:09:50.271Z,99386.30
2022-12-15T07:12:18.837Z,99389.67
2022-12-15T07:14:53.053Z,99388.84
2022-12-15T07:17:22.183Z,99390.35
2022-12-15T07:19:50.678Z,99395.30
2022-12-15T07:22:20.433Z,99400.61
2022-12-15T07:24:48.775Z,99402.35
2022-12-15T07:27:18.234Z,99400.50
2022-12-15T07:29:46.470Z,99404.71
2022-12-15T07:32:15.904Z,99412.50
2022-12-15T07:34:44.705Z,99419.83
2022-12-15T07:37:13.366Z,99427.10
2022-12-15T07:39:41.984Z,99431.20
2022-12-15T07:42:10.381Z,99434.92
2022-12-15T07:44:38.838Z,99435.61
2022-12-15T07:47:07.266Z,99435.61
2022-12-15T07:49:35.476Z,99436.84
2022-12-15T07:52:04.439Z,99436.19
2022-12-15T07:54:32.863Z,99438.05
2022-12-15T07:57:02.791Z,99441.09
2022-12-15T07:59:31.039Z,99436.21
2022-12-15T08:02:00.800Z,99435.25
2022-12-15T08:04:29.157Z,99435.43
2022-12-15T08:06:58.599Z,99433.64
2022-12-15T08:09:26.877Z,99434.91
2022-12-15T08:11:55.194Z,99439.63
2022-12-15T08:14:24.281Z,99440.48
2022-12-15T08:16:53.641Z,99442.02
2022-12-15T08:19:21.939Z,99448.93
2022-12-15T08:21:50.856Z,99453.80
2022-12-15T08:24:19.552Z,99457.48
2022-12-15T08:26:50.503Z,99465.38
2022-12-15T08:32:07.741Z,99467.23
2022-12-15T08:34:36.285Z,99469.05
2022-12-15T08:37:04.521Z,99470.88
2022-12-15T08:39:32.781Z,99471.84
2022-12-15T08:42:01.081Z,99473.71
2022-12-15T08:44:29.324Z,99476.41
2022-12-15T08:46:57.560Z,99481.48
2022-12-15T08:49:25.927Z,99487.42
2022-12-15T08:51:54.200Z,99489.02
2022-12-15T08:54:22.607Z,99491.27
2022-12-15T08:56:50.976Z,99495.86
2022-12-15T08:59:19.549Z,99491.48
2022-12-15T09:01:48.473Z,99492.52
2022-12-15T09:04:17.316Z,99491.20
2022-12-15T09:06:46.767Z,99491.39
2022-12-15T09:09:19.818Z,99491.08
2022-12-15T09:11:49.313Z,99489.27
2022-12-15T09:14:18.965Z,99489.86
2022-12-15T09:16:50.729Z,99497.23
2022-12-15T09:19:19.318Z,99493.08
2022-12-15T09:21:48.414Z,99497.73
2022-12-15T09:24:25.841Z,99502.88
2022-12-15T09:27:01.238Z,99503.74
2022-12-15T09:29:29.570Z,99508.37
2022-12-15T09:31:57.968Z,99505.64
2022-12-15T09:34:26.469Z,99505.27
2022-12-15T09:36:54.757Z,99502.48
2022-12-15T09:39:23.742Z,99504.45
2022-12-15T09:41:55.505Z,99505.89
2022-12-15T09:44:26.144Z,99510.74
2022-12-15T09:47:17.708Z,99511.93
2022-12-15T09:49:56.510Z,99510.25
2022-12-15T09:52:27.921Z,99514.80
2022-12-15T09:54:57.997Z,99513.98
2022-12-15T09:57:43.016Z,99516.63
2022-12-15T10:00:26.113Z,99512.44
2022-12-15T10:03:28.299Z,99508.08
2022-12-15T10:06:16.026Z,99514.43
2022-12-15T10:09:02.102Z,99511.41
2022-12-15T10:11:50.980Z,99512.48
2022-12-15T10:14:42.346Z,99510.33
2022-12-15T10:17:33.729Z,99504.75
2022-12-15T10:20:17.471Z,99502.71
2022-12-15T10:22:46.013Z,99501.20
2022-12-15T10:29:08.242Z,99489.42
2022-12-15T10:31:51.471Z,99495.55
2022-12-15T10:34:29.755Z,99497.23
2022-12-15T10:36:59.001Z,99502.52
2022-12-15T10:39:41.435Z,99503.04
2022-12-15T10:42:15.847Z,99503.53
2022-12-15T10:44:50.273Z,99503.34
2022-12-15T10:47:26.228Z,99507.08
2022-12-15T10:49:56.566Z,99505.19
2022-12-15T10:52:43.029Z,99498.52
2022-12-15T10:55:38.835Z,99498.36
2022-12-15T10:58:23.266Z,99493.02
2022-12-15T11:01:15.309Z,99498.44
2022-12-15T11:03:44.239Z,99509.31
2022-12-15T11:06:20.479Z,99508.62
2022-12-15T11:08:52.680Z,99509.24
2022-12-15T11:11:53.795Z,99508.30
2022-12-15T11:14:28.436Z,99510.23
2022-12-15T11:16:59.402Z,99512.84
2022-12-15T11:20:00.033Z,99510.56
2022-12-15T11:23:03.166Z,99507.11
2022-12-15T11:25:51.259Z,99510.52
2022-12-15T11:28:38.901Z,99503.81
2022-12-15T11:31:18.015Z,99500.36
2022-12-15T11:33:46.413Z,99506.48
2022-12-15T11:36:25.780Z,99508.77
2022-12-15T11:39:03.048Z,99511.77
2022-12-15T11:41:54.043Z,99511.91
2022-12-15T11:44:32.634Z,99516.14
2022-12-15T11:47:19.621Z,99519.97
2022-12-15T11:50:29.704Z,99525.00
2022-12-15T11:53:23.693Z,99527.98
2022-12-15T11:56:19.265Z,99530.75
2022-12-15T11:59:16.245Z,99528.71
2022-12-15T12:02:02.943Z,99524.57
2022-12-15T12:04:44.773Z,99526.83
2022-12-15T12:07:43.924Z,99524.79
2022-12-15T12:10:46.415Z,99528.36
2022-12-15T12:13:46.645Z,99532.64
2022-12-15T12:16:29.263Z,99541.10
2022-12-15T12:19:03.064Z,99536.42
2022-12-15T12:21:47.051Z,99543.59
2022-12-15T12:24:30.441Z,99550.31
2022-12-15T12:27:09.850Z,99558.25
2022-12-15T12:29:44.798Z,99555.57
2022-12-15T12:32:40.467Z,99556.64
2022-12-15T12:35:56.678Z,99558.85
2022-12-15T12:38:31.437Z,99555.71
2022-12-15T12:41:27.402Z,99548.88
2022-12-15T12:44:00.901Z,99552.95
2022-12-15T12:46:34.425Z,99551.74
2022-12-15T12:49:13.461Z,99547.73
2022-12-15T12:51:49.375Z,99545.98
2022-12-15T12:54:36.090Z,99545.73
2022-12-15T12:57:13.449Z,99548.23
2022-12-15T12:59:56.276Z,99550.77
2022-12-15T13:02:24.949Z,99553.19
2022-12-15T13:05:00.609Z,99549.39
2022-12-15T13:07:31.162Z,99550.84
2022-12-15T13:10:08.641Z,99553.77
2022-12-15T13:12:54.753Z,99560.08
2022-12-15T13:15:29.457Z,99565.73
2022-12-15T13:18:07.175Z,99565.84
2022-12-15T13:20:37.738Z,99570.89
2022-12-15T13:23:21.510Z,99569.25
2022-12-15T13:25:55.885Z,99570.19
2022-12-15T13:28:36.128Z,99578.14
2022-12-15T13:31:17.141Z,99578.39
2022-12-15T13:33:52.363Z,99583.96
2022-12-15T13:36:39.565Z,99584.89
2022-12-15T13:39:17.168Z,99590.13
2022-12-15T13:44:52.725Z,99593.02
2022-12-15T13:47:28.007Z,99586.08
2022-12-15T13:50:27.148Z,99586.47
2022-12-15T13:53:18.383Z,99585.17
2022-12-15T13:56:17.493Z,99586.61
2022-12-15T13:58:57.841Z,99591.28
2022-12-15T14:01:32.758Z,99595.06
2022-12-15T14:04:15.867Z,99597.09
2022-12-15T14:09:42.202Z,99607.07
2022-12-15T14:12:13.824Z,99603.06
2022-12-15T14:14:49.616Z,99608.43
2022-12-15T14:17:19.841Z,99608.85
2022-12-15T14:19:51.006Z,99607.56
2022-12-15T14:22:30.619Z,99614.60
2022-12-15T14:25:03.594Z,99618.23
2022-12-15T14:27:33.938Z,99625.14
2022-12-15T14:30:17.615Z,99621.64
2022-12-15T14:32:49.329Z,99619.23
2022-12-15T14:35:27.762Z,99624.52
2022-12-15T14:37:58.377Z,99623.23
2022-12-15T14:40:29.856Z,99624.73
2022-12-15T14:42:58.563Z,99625.83
2022-12-15T14:45:32.505Z,99632.06
2022-12-15T14:48:39.473Z,99636.86
2022-12-15T14:51:01.610Z,99630.30
2022-12-15T14:53:37.462Z,99627.42
2022-12-15T14:56:33.410Z,99630.90
2022-12-15T14:59:20.875Z,99626.45
2022-12-15T15:02:10.288Z,99625.88
2022-12-15T15:03:06.627Z,99498.64
2022-12-15T15:04:39.102Z,99625.51
2022-12-15T15:07:17.476Z,99628.83
2022-12-15T15:09:46.442Z,99628.02
2022-12-15T15:12:20.633Z,99629.40
2022-12-15T15:14:59.228Z,99629.88
2022-12-15T15:17:39.185Z,99628.04
2022-12-15T15:20:22.392Z,99629.39
2022-12-15T15:23:10.980Z,99640.71
2022-12-15T15:25:42.726Z,99646.08
2022-12-15T15:28:21.770Z,99640.92
2022-12-15T15:30:51.526Z,99652.23
2022-12-15T15:33:26.247Z,99655.95
2022-12-15T15:36:00.017Z,99653.27
2022-12-15T15:38:37.961Z,99658.06
2022-12-15T15:41:19.994Z,99650.14
2022-12-15T15:43:49.583Z,99648.04
2022-12-15T15:46:25.579Z,99650.50
2022-12-15T15:48:57.688Z,99656.89
2022-12-15T15:51:27.450Z,99655.14
2022-12-15T15:54:01.288Z,99658.52
2022-12-15T15:56:31.270Z,99662.26
2022-12-15T15:59:09.488Z,99670.65
2022-12-15T16:01:37.848Z,99674.57
2022-12-15T16:04:06.914Z,99670.79
2022-12-15T16:06:35.930Z,99675.63
2022-12-15T16:09:07.143Z,99679.27
2022-12-15T16:11:36.594Z,99680.64
2022-12-15T16:14:11.276Z,99679.58
2022-12-15T16:16:41.923Z,99681.98
2022-12-15T16:19:12.205Z,99680.77
2022-12-15T16:21:43.054Z,99678.64
2022-12-15T16:24:17.713Z,99691.58
2022-12-15T16:26:49.725Z,99685.45
2022-12-15T16:29:20.528Z,99688.83
2022-12-15T16:31:49.223Z,99690.45
2022-12-15T16:34:19.307Z,99693.47
2022-12-15T16:36:47.888Z,99697.16
2022-12-15T16:39:31.278Z,99707.05
2022-12-15T16:41:59.711Z,99718.18
2022-12-15T16:44:29.563Z,99712.98
2022-12-15T16:46:59.121Z,99723.64
2022-12-15T16:49:33.911Z,99718.83
2022-12-15T16:52:15.172Z,99719.06
2022-12-15T16:54:46.805Z,99719.36
2022-12-15T16:57:15.530Z,99718.20
2022-12-15T16:59:43.796Z,99717.44
2022-12-15T17:02:28.645Z,99720.20
2022-12-15T17:04:57.515Z,99720.11
2022-12-15T17:07:27.859Z,99727.77
2022-12-15T17:09:56.941Z,99731.70
2022-12-15T17:12:25.360Z,99731.48
2022-12-15T17:14:53.657Z,99733.77
2022-12-15T17:17:22.020Z,99730.48
2022-12-15T17:20:27.945Z,99734.14
2022-12-15T17:22:40.418Z,99734.15
2022-12-15T17:25:32.062Z,99739.54
2022-12-15T17:28:21.040Z,99743.88
2022-12-15T17:30:51.707Z,99737.50
2022-12-15T17:33:22.673Z,99727.91
2022-12-15T17:36:01.544Z,99728.79
2022-12-15T17:38:30.132Z,99732.86
2022-12-15T17:40:58.448Z,99742.96
2022-12-15T17:43:32.058Z,99734.52
2022-12-15T17:46:04.154Z,99739.25
2022-12-15T17:48:33.042Z,99739.85
2022-12-15T17:51:01.316Z,99742.20
2022-12-15T17:53:31.000Z,99737.99
2022-12-15T17:55:59.511Z,99736.01
2022-12-15T17:58:27.811Z,99736.83
2022-12-15T18:00:56.534Z,99737.09
2022-12-15T18:03:25.085Z,99733.64
2022-12-15T18:05:53.845Z,99735.08
2022-12-15T18:08:25.651Z,99729.27
2022-12-15T18:10:58.095Z,99738.70
2022-12-15T18:13:34.884Z,99739.49
2022-12-15T18:16:04.053Z,99740.42
2022-12-15T18:18:32.673Z,99741.45
2022-12-15T18:21:08.142Z,99745.63
2022-12-15T18:23:37.370Z,99757.84
2022-12-15T18:26:05.930Z,99759.42
2022-12-15T18:28:35.706Z,99770.02
2022-12-15T18:31:14.986Z,99773.92
2022-12-15T18:33:44.611Z,99774.68
2022-12-15T18:36:13.719Z,99788.38
2022-12-15T18:38:42.577Z,99795.38
2022-12-15T18:41:17.332Z,99803.66
2022-12-15T18:43:47.813Z,99809.30
2022-12-15T18:46:18.907Z,99820.16
2022-12-15T18:48:47.450Z,99820.88
2022-12-15T18:51:18.917Z,99821.64
2022-12-15T18:53:51.154Z,99825.93
2022-12-15T18:56:21.769Z,99834.31
2022-12-15T18:58:50.088Z,99831.83
2022-12-15T19:01:18.713Z,99832.80
2022-12-15T19:03:47.361Z,99836.55
2022-12-15T19:06:35.025Z,99829.73
2022-12-15T19:09:06.377Z,99833.36
2022-12-15T19:11:34.775Z,99833.27
2022-12-15T19:14:24.998Z,99839.17
2022-12-15T19:17:12.610Z,99842.14
2022-12-15T19:19:59.506Z,99853.30
2022-12-15T19:22:29.679Z,99858.49
2022-12-15T19:24:59.168Z,99861.17
2022-12-15T19:27:27.650Z,99867.75
2022-12-15T19:29:55.997Z,99867.48
2022-12-15T19:32:24.444Z,99866.58
2022-12-15T19:34:52.698Z,99870.30
2022-12-15T19:37:30.212Z,99866.61
2022-12-15T19:40:01.096Z,99864.09
2022-12-15T19:43:39.589Z,99860.48
2022-12-15T19:46:17.382Z,99864.73
2022-12-15T19:48:46.362Z,99879.80
2022-12-15T19:51:21.159Z,99873.29
2022-12-15T19:53:49.891Z,99876.64
2022-12-15T19:56:21.991Z,99885.27
2022-12-15T19:58:50.546Z,99888.64
2022-12-15T20:01:21.344Z,99884.98
2022-12-15T20:03:52.892Z,99885.35
2022-12-15T20:06:24.725Z,99887.67
2022-12-15T20:08:55.969Z,99890.13
2022-12-15T20:11:30.340Z,99896.75
2022-12-15T20:13:59.060Z,99894.58
2022-12-15T20:16:27.431Z,99898.88
2022-12-15T20:18:56.250Z,99894.10
2022-12-15T20:21:31.590Z,99900.13
2022-12-15T20:24:15.140Z,99905.53
2022-12-15T20:26:45.776Z,99910.98
2022-12-15T20:29:28.368Z,99911.95
2022-12-15T20:31:57.607Z,99922.94
2022-12-15T20:34:26.264Z,99920.41
2022-12-15T20:36:54.512Z,99919.80
2022-12-15T20:39:26.955Z,99918.20
2022-12-15T20:41:56.568Z,99919.27
2022-12-15T20:44:24.891Z,99928.16
2022-12-15T20:46:53.679Z,99919.27
2022-12-15T20:49:22.784Z,99922.55
2022-12-15T20:51:51.872Z,99921.50
2022-12-15T20:54:22.529Z,99922.00
2022-12-15T20:56:51.028Z,99926.92
2022-12-15T20:59:19.509Z,99927.65
2022-12-15T21:01:48.209Z,99926.45
2022-12-15T21:04:25.032Z,99928.06
2022-12-15T21:06:55.178Z,99925.07
2022-12-15T21:09:24.636Z,99925.28
2022-12-15T21:11:55.144Z,99927.15
2022-12-15T21:14:24.658Z,99924.65
2022-12-15T21:16:53.028Z,99923.59
2022-12-15T21:19:22.568Z,99919.88
2022-12-15T21:21:54.780Z,99923.96
2022-12-15T21:24:27.047Z,99922.61
2022-12-15T21:26:56.228Z,99933.41
2022-12-15T21:29:28.764Z,99939.21
2022-12-15T21:31:57.537Z,99935.89
2022-12-15T21:34:25.872Z,99930.88
2022-12-15T21:36:54.994Z,99926.07
2022-12-15T21:39:31.090Z,99928.16
2022-12-15T21:42:01.893Z,99939.66
2022-12-15T21:44:30.299Z,99941.98
2022-12-15T21:46:58.606Z,99941.76
2022-12-15T21:49:27.265Z,99947.96
2022-12-15T21:52:01.139Z,99950.79
2022-12-15T21:54:35.187Z,99948.58
2022-12-15T21:57:03.881Z,99950.42
2022-12-15T21:59:32.986Z,99944.65
2022-12-15T22:02:01.841Z,99947.23
2022-12-15T22:04:33.603Z,99954.12
2022-12-15T22:07:02.424Z,99953.40
2022-12-15T22:09:30.666Z,99962.34
2022-12-15T22:11:59.343Z,99972.06
2022-12-15T22:14:33.871Z,99983.55
2022-12-15T22:17:14.448Z,99993.29
2022-12-15T22:19:42.750Z,100001.00
2022-12-15T22:22:12.391Z,100004.10
2022-12-15T22:24:41.000Z,99998.65
2022-12-15T22:27:21.243Z,99986.56
2022-12-15T22:29:50.484Z,99982.32
2022-12-15T22:32:18.728Z,99989.66
2022-12-15T22:34:47.157Z,100003.61
2022-12-15T22:37:15.871Z,100015.30
2022-12-15T22:39:44.192Z,100017.59
2022-12-15T22:42:16.757Z,100016.48
2022-12-15T22:44:45.850Z,100015.09
2022-12-15T22:47:14.164Z,100012.47
2022-12-15T22:49:42.699Z,100015.91
2022-12-15T22:52:19.783Z,100018.63
2022-12-15T22:54:48.598Z,100019.17
2022-12-15T22:57:21.603Z,100013.67
2022-12-15T23:00:05.764Z,100015.89
2022-12-15T23:02:40.825Z,100014.23
2022-12-15T23:05:12.058Z,100006.35
2022-12-15T23:07:41.509Z,100007.09
2022-12-15T23:10:31.207Z,100001.05
2022-12-15T23:12:59.676Z,99998.45
2022-12-15T23:15:47.726Z,99998.17
2022-12-15T23:18:16.388Z,100000.44
2022-12-15T23:20:44.602Z,100002.05
2022-12-15T23:23:12.825Z,100003.23
2022-12-15T23:25:41.234Z,100010.91
2022-12-15T23:28:09.717Z,100015.13
2022-12-15T23:30:38.112Z,100019.73
2022-12-15T23:33:06.433Z,100022.33
2022-12-15T23:35:35.772Z,100019.16
2022-12-15T23:38:03.986Z,100022.63
2022-12-15T23:40:32.313Z,100026.02
2022-12-15T23:43:00.795Z,100028.27
2022-12-15T23:45:29.267Z,100032.37
2022-12-15T23:47:57.518Z,100033.73
2022-12-15T23:50:25.737Z,100036.41
2022-12-15T23:52:54.030Z,100030.86
2022-12-15T23:55:23.114Z,100028.98
2022-12-15T23:57:51.844Z,100028.19
